• Join FlightAware (Why Join?)
  • Login
  • US Flag 
12:55AM EST


 

Airport Tracker/Info


-or-


 

Live Flight TrackerFlight Track Log ✈ TAM8008 ✈ 24-Jul-2013 ✈ SBGR / GRU - SABE / AEP

Flight Track Log - Related Links

Times and Time Zones

All times are in EDT time to prevent confusion due to time zone crossing. See the TAM8008 flight status page for this flight to view local times or setup timezone preferences in your user account.

Time Position Orientation Groundspeed Altitude Reporting Facility
EDT Latitude Longitude Course Direction KTS MPH feet Rate Location/Type
05:54PM -23.4330 -46.4840 163° South 9 10  Level FlightAware
05:56PM -23.4340 -46.4830 137° Southeast 10 12 420 Level FlightAware
05:59PM -23.6301 -46.6653 220° Southwest  Level Estimated
06:00PM -23.7128 -46.7424 220° Southwest  Level Estimated
06:00PM -23.4340 -46.4810 220° Southwest 53 61  Level FlightAware
06:00PM -23.4290 -46.4640 72° East 170 196 3,420 Level FlightAware
06:00PM -23.4260 -46.4510 76° East 173 199 2,700 6,120 Climbing FlightAware
06:01PM -23.4200 -46.4320 71° East 159 183 4,000 2,280 Climbing FlightAware
06:01PM -23.4230 -46.4170 102° East 167 192 4,600 1,320 Climbing FlightAware
06:01PM -23.4320 -46.4100 144° Southeast 177 204 4,900 1,140 Climbing FlightAware
06:02PM -23.4560 -46.4170 195° South 219 252 5,400 1,020 Climbing FlightAware
06:02PM -23.4700 -46.4320 225° Southwest 239 275 5,700 1,800 Climbing FlightAware
06:03PM -23.4930 -46.4680 235° Southwest 270 311 6,900 2,520 Climbing FlightAware
06:03PM -23.5110 -46.4940 233° Southwest 275 316 8,100 3,360 Climbing FlightAware
06:03PM -23.5300 -46.5210 232° Southwest 270 311 9,600 3,480 Climbing FlightAware
06:04PM -23.5500 -46.5370 216° Southwest 281 323 10,500 2,940 Climbing FlightAware
06:04PM -23.5900 -46.5660 214° Southwest 273 314 12,400 2,760 Climbing FlightAware
06:05PM -23.6420 -46.6210 224° Southwest 285 328 14,600 2,400 Climbing FlightAware
06:06PM -23.6810 -46.6610 223° Southwest 297 342 16,000 1,920 Climbing FlightAware
06:07PM -23.7240 -46.7070 224° Southwest 315 362 17,300 1,800 Climbing FlightAware
06:07PM -23.7710 -46.7570 224° Southwest 328 377 18,600 1,380 Climbing FlightAware
06:08PM -23.8190 -46.8070 224° Southwest 359 413 19,300 840 Climbing FlightAware
06:09PM -23.8690 -46.8610 225° Southwest 392 451 19,800 1,200 Climbing FlightAware
06:09PM -23.9240 -46.9190 224° Southwest 400 460 21,000 1,440 Climbing FlightAware
06:10PM -23.9830 -46.9810 224° Southwest 416 479 21,900 1,680 Climbing FlightAware
06:11PM -24.0400 -47.0420 224° Southwest 409 471 23,400 3,360 Climbing FlightAware
06:11PM -24.0930 -47.0970 223° Southwest 354 407 26,600 2,820 Climbing FlightAware
06:12PM -24.1420 -47.1500 225° Southwest 362 417 27,400 960 Climbing FlightAware
06:13PM -24.1980 -47.2080 223° Southwest 386 444 28,000 600 Climbing FlightAware
06:14PM -24.2530 -47.2600 221° Southwest 406 467 28,300 300 Climbing FlightAware
06:14PM -24.3160 -47.3220 222° Southwest 427 491 28,500 600 Climbing FlightAware
06:15PM -24.3750 -47.3800 222° Southwest 432 497 29,200 1,020 Climbing FlightAware
06:16PM -24.4350 -47.4380 221° Southwest 437 503 29,900 840 Climbing FlightAware
06:16PM -24.5030 -47.5040 221° Southwest 446 513 30,400 780 Climbing FlightAware
06:17PM -24.5590 -47.5600 222° Southwest 448 516 31,000 840 Climbing FlightAware
06:18PM -24.6160 -47.6160 222° Southwest 453 521 31,500 1,140 Climbing FlightAware
06:18PM -24.6930 -47.6910 222° Southwest 448 516 32,700 1,260 Climbing FlightAware
06:19PM -24.7400 -47.7380 222° Southwest 440 506 33,200 1,320 Climbing FlightAware
06:20PM -24.8230 -47.8190 222° Southwest 431 496 34,700 1,080 Climbing FlightAware
06:21PM -24.8700 -47.8670 223° Southwest 438 504 34,900 720 Climbing FlightAware
06:21PM -24.9290 -47.9260 222° Southwest 435 501 35,600 840 Climbing FlightAware
06:22PM -24.9650 -47.9610 221° Southwest 437 503 35,800 240 Climbing FlightAware
06:23PM -25.0770 -48.0730 222° Southwest 441 507 36,000 60 Climbing FlightAware
06:23PM -25.1270 -48.1220 222° Southwest 436 502 36,000  Level FlightAware
06:24PM -25.1830 -48.1780 222° Southwest 437 503 36,000  Level FlightAware
06:25PM -25.2460 -48.2400 222° Southwest 435 501 36,000  Level FlightAware
06:25PM -25.3090 -48.3040 223° Southwest 433 498 36,000  Level FlightAware
06:26PM -25.3720 -48.3660 222° Southwest 433 498 36,000  Level FlightAware
06:27PM -25.4350 -48.4300 223° Southwest 437 503 36,000  Level FlightAware
06:27PM -25.4970 -48.4920 222° Southwest 440 506 36,000  Level FlightAware
06:28PM -25.5630 -48.5550 221° Southwest 448 516 36,000  Level FlightAware
06:29PM -25.6730 -48.6530 219° Southwest 447 514 36,000  Level FlightAware
06:30PM -25.7490 -48.7200 218° Southwest 446 513 36,000  Level FlightAware
06:31PM -25.8140 -48.7770 218° Southwest 448 516 36,000  Level FlightAware
06:31PM -25.8700 -48.8270 219° Southwest 450 518 36,000  Level FlightAware
06:32PM -25.9340 -48.8850 219° Southwest 449 517 36,000  Level FlightAware
06:33PM -25.9980 -48.9430 219° Southwest 449 517 36,000  Level FlightAware
06:33PM -26.0550 -48.9940 219° Southwest 449 517 36,000  Level FlightAware
06:34PM -26.1280 -49.0590 219° Southwest 449 517 36,000  Level FlightAware
06:35PM -26.2000 -49.1240 219° Southwest 449 517 36,000  Level FlightAware
06:35PM -26.2560 -49.1740 219° Southwest 449 517 36,000  Level FlightAware
06:36PM -26.3260 -49.2370 219° Southwest 449 517 36,000  Level FlightAware
06:37PM -26.3870 -49.2920 219° Southwest 449 517 36,000  Level FlightAware
06:37PM -26.4710 -49.3680 219° Southwest 443 510 36,000  Level FlightAware
06:38PM -26.5210 -49.4130 219° Southwest 444 511 36,000  Level FlightAware
06:39PM -26.5930 -49.4790 219° Southwest 446 513 36,000  Level FlightAware
06:39PM -26.6570 -49.5370 219° Southwest 449 517 36,000  Level FlightAware
06:40PM -26.7270 -49.6010 219° Southwest 450 518 36,000  Level FlightAware
06:41PM -26.7880 -49.6570 219° Southwest 450 518 36,000  Level FlightAware
06:41PM -26.8520 -49.7140 218° Southwest 449 517 36,000  Level FlightAware
06:42PM -26.9250 -49.7820 220° Southwest 449 517 36,000  Level FlightAware
06:43PM -26.9880 -49.8390 219° Southwest 451 519 36,000  Level FlightAware
06:43PM -27.0480 -49.8940 219° Southwest 450 518 36,000  Level FlightAware
06:44PM -27.1350 -49.9740 219° Southwest 451 519 36,000  Level FlightAware
06:45PM -27.1940 -50.0280 219° Southwest 449 517 36,000  Level FlightAware
06:46PM -27.2560 -50.0850 219° Southwest 449 517 36,000  Level FlightAware
06:47PM -27.3440 -50.1670 220° Southwest 451 519 36,000  Level FlightAware
06:47PM -27.4100 -50.2280 219° Southwest 453 521 36,000  Level FlightAware
06:48PM -27.4750 -50.2870 219° Southwest 452 520 36,000  Level FlightAware
06:49PM -27.5450 -50.3530 220° Southwest 453 521 36,000  Level FlightAware
06:49PM -27.6100 -50.4130 219° Southwest 450 518 36,000  Level FlightAware
06:50PM -27.6670 -50.4660 219° Southwest 449 517 36,000  Level FlightAware
06:51PM -27.7380 -50.5330 220° Southwest 450 518 36,000  Level FlightAware
06:51PM -27.8040 -50.5940 219° Southwest 450 518 36,000  Level FlightAware
06:52PM -27.8600 -50.6460 219° Southwest 452 520 36,000  Level FlightAware
06:53PM -27.9220 -50.7040 220° Southwest 454 522 36,000  Level FlightAware
06:53PM -27.9960 -50.7730 219° Southwest 456 525 36,000  Level FlightAware
06:54PM -28.0470 -50.8210 220° Southwest 457 526 36,000 60 Level FlightAware
06:55PM -28.1180 -50.8880 220° Southwest 454 522 36,100  Climbing FlightAware
06:55PM -28.1780 -50.9450 220° Southwest 451 519 36,000 -120 Descending FlightAware
06:56PM -28.2520 -51.0150 220° Southwest 449 517 36,000  Level FlightAware
06:57PM -28.3180 -51.0770 220° Southwest 448 516 36,000  Level FlightAware
06:57PM -28.3910 -51.1460 220° Southwest 450 518 36,000  Level FlightAware
06:58PM -28.4520 -51.2040 220° Southwest 450 518 36,000  Level FlightAware
06:59PM -28.5160 -51.2650 220° Southwest 449 517 36,000  Level FlightAware
06:59PM -28.5780 -51.3250 220° Southwest 448 516 36,000  Level FlightAware
07:00PM -28.6440 -51.3870 219° Southwest 449 517 36,000  Level FlightAware
07:01PM -28.7060 -51.4470 220° Southwest 454 522 36,000  Level FlightAware
07:02PM -28.7780 -51.5150 220° Southwest 459 528 36,000  Level FlightAware
07:02PM -28.8450 -51.5800 220° Southwest 462 532 36,000  Level FlightAware
07:03PM -28.9080 -51.6400 220° Southwest 463 533 36,000  Level FlightAware
07:04PM -28.9850 -51.7140 220° Southwest 464 534 36,000  Level FlightAware
07:04PM -29.0400 -51.7670 220° Southwest 464 534 36,000  Level FlightAware
07:05PM -29.1070 -51.8320 220° Southwest 463 533 36,000  Level FlightAware
07:06PM -29.1720 -51.8950 220° Southwest 460 529 36,000  Level FlightAware
07:06PM -29.2370 -51.9580 220° Southwest 455 524 36,000  Level FlightAware
07:07PM -29.3010 -52.0200 220° Southwest 453 521 36,000  Level FlightAware
07:08PM -29.3630 -52.0800 220° Southwest 451 519 36,000  Level FlightAware
07:08PM -29.4200 -52.1360 221° Southwest 450 518 36,000  Level FlightAware
07:09PM -29.4900 -52.2040 220° Southwest 449 517 36,000  Level FlightAware
07:10PM -29.5560 -52.2690 221° Southwest 447 514 36,000  Level FlightAware
07:10PM -29.6170 -52.3280 220° Southwest 444 511 36,000  Level FlightAware
07:11PM -29.6880 -52.3970 220° Southwest 444 511 36,000  Level FlightAware
07:12PM -29.7530 -52.4610 221° Southwest 445 512 36,000  Level FlightAware
07:12PM -29.8120 -52.5200 221° Southwest 445 512 36,000  Level FlightAware
07:13PM -29.8760 -52.5830 220° Southwest 445 512 36,000  Level FlightAware
07:14PM -29.9610 -52.6670 221° Southwest 447 514 36,000  Level FlightAware
07:15PM -30.0190 -52.7250 221° Southwest 448 516 36,000  Level FlightAware
07:15PM -30.0810 -52.7860 220° Southwest 450 518 36,000  Level FlightAware
07:16PM -30.1620 -52.8660 220° Southwest 454 522 36,000  Level FlightAware
07:17PM -30.2270 -52.9310 221° Southwest 455 524 36,000  Level FlightAware
07:17PM -30.2990 -53.0030 221° Southwest 456 525 36,000  Level FlightAware
07:18PM -30.3590 -53.0630 221° Southwest 456 525 36,000  Level FlightAware
07:19PM -30.4270 -53.1310 221° Southwest 455 524 36,000  Level FlightAware
07:19PM -30.4980 -53.2020 221° Southwest 450 518 36,000  Level FlightAware
07:20PM -30.5720 -53.2760 221° Southwest 444 511 36,000  Level FlightAware
07:21PM -30.6570 -53.3620 221° Southwest 440 506 36,000  Level FlightAware
07:22PM -30.7220 -53.4280 221° Southwest 437 503 36,000  Level FlightAware
07:22PM -30.7540 -53.4600 221° Southwest 436 502 36,000  Level FlightAware
07:23PM -30.8260 -53.5330 221° Southwest 435 501 36,000  Level FlightAware
07:24PM -30.8910 -53.5980 221° Southwest 435 501 36,000  Level FlightAware
07:24PM -30.9590 -53.6680 221° Southwest 433 498 36,000  Level FlightAware
07:25PM -31.0090 -53.7190 221° Southwest 433 498 36,000  Level FlightAware
07:26PM -31.0800 -53.7900 221° Southwest 430 495 36,000  Level FlightAware
07:26PM -31.1400 -53.8520 221° Southwest 431 496 36,000  Level FlightAware
07:27PM -31.2000 -53.9130 221° Southwest 430 495 36,000  Level FlightAware
07:28PM -31.2430 -53.9570 221° Southwest 430 495 36,000  Level FlightAware
07:29PM -31.3290 -54.0450 221° Southwest 430 495 36,000  Level FlightAware
07:29PM -31.3920 -54.1110 222° Southwest 432 497 36,000  Level FlightAware
07:30PM -31.4510 -54.1800 225° Southwest 434 499 36,000  Level FlightAware
07:31PM -31.5160 -54.2600 226° Southwest 435 501 36,000  Level FlightAware
07:31PM -31.5640 -54.3190 226° Southwest 435 501 36,000  Level FlightAware
07:32PM -31.6400 -54.4120 226° Southwest 437 503 36,000  Level FlightAware
07:33PM -31.6790 -54.4590 226° Southwest 436 502 36,000  Level FlightAware
07:34PM -31.7380 -54.5320 226° Southwest 436 502 36,000  Level FlightAware
07:34PM -31.7810 -54.5840 226° Southwest 436 502 36,000  Level FlightAware
07:35PM -31.8390 -54.6550 226° Southwest 436 502 36,000  Level FlightAware
07:36PM -31.8830 -54.7090 226° Southwest 436 502 36,000  Level FlightAware
07:36PM -31.9260 -54.7610 226° Southwest 436 502 36,000  Level FlightAware
07:37PM -31.9690 -54.8130 226° Southwest 436 502 36,000  Level FlightAware
07:38PM -32.0250 -54.8820 226° Southwest 436 502 36,000  Level FlightAware
07:38PM -32.0690 -54.9350 226° Southwest 436 502 36,000  Level FlightAware
07:39PM -32.1260 -55.0050 226° Southwest 436 502 36,000  Level FlightAware
07:40PM -32.1980 -55.0930 226° Southwest 436 502 36,000  Level FlightAware
07:41PM -32.3410 -55.2840 228° Southwest 425 489 36,000  Level FlightAware
07:41PM -32.3810 -55.3330 226° Southwest 425 489 36,000  Level FlightAware
07:42PM -32.4520 -55.4260 228° Southwest 418 481 36,000  Level FlightAware
07:43PM -32.5050 -55.4920 226° Southwest 418 481 36,000  Level FlightAware
07:43PM -32.5550 -55.5560 227° Southwest 419 482 36,000  Level FlightAware
07:44PM -32.6090 -55.6230 226° Southwest 419 482 36,000  Level FlightAware
07:45PM -32.6520 -55.6790 228° Southwest 418 481 36,000  Level FlightAware
07:45PM -32.6940 -55.7320 227° Southwest 418 481 36,000  Level FlightAware
07:46PM -32.7740 -55.8350 227° Southwest 416 479 36,000  Level FlightAware
07:47PM -32.8230 -55.8970 227° Southwest 416 479 36,000  Level FlightAware
07:48PM -32.8750 -55.9640 227° Southwest 417 480 36,000  Level FlightAware
07:48PM -32.9330 -56.0380 227° Southwest 416 479 36,000 60 Level FlightAware
07:49PM -32.9870 -56.1090 228° Southwest 411 473 36,100  Climbing FlightAware
07:50PM -33.0390 -56.1750 227° Southwest 406 467 36,000 -120 Descending FlightAware
07:50PM -33.0840 -56.2330 227° Southwest 404 465 36,000 -120 Level FlightAware
07:51PM -33.1390 -56.3030 227° Southwest 411 473 35,900  Descending FlightAware
07:52PM -33.1900 -56.3700 228° Southwest 417 480 36,000 60 Climbing FlightAware
07:52PM -33.2410 -56.4550 234° Southwest 435 501 36,000  Level FlightAware
07:53PM -33.2850 -56.5460 240° Southwest 431 496 36,000  Level FlightAware
07:54PM -33.3450 -56.6690 240° Southwest 431 496 36,000  Level FlightAware
07:55PM -33.3840 -56.7510 240° Southwest 430 495 36,000  Level FlightAware
07:55PM -33.4280 -56.8410 240° Southwest 429 494 36,000 -480 Level FlightAware
07:56PM -33.4670 -56.9230 240° Southwest 424 488 35,400 -1,440 Descending FlightAware
07:57PM -33.5100 -57.0120 240° Southwest 418 481 34,000 -1,980 Descending FlightAware
07:57PM -33.5490 -57.0930 240° Southwest 418 481 32,700 -2,100 Descending FlightAware
07:58PM -33.5900 -57.1810 241° Southwest 425 489 31,100 -2,160 Descending FlightAware
07:59PM -33.6300 -57.2650 240° Southwest 437 503 29,700 -2,220 Descending FlightAware
08:00PM -33.6760 -57.3620 240° Southwest 443 510 28,000 -2,340 Descending FlightAware
08:00PM -33.7170 -57.4480 240° Southwest 438 504 26,400 -2,400 Descending FlightAware
08:01PM -33.7600 -57.5400 241° Southwest 435 501 24,700 -2,340 Descending FlightAware
08:02PM -33.7980 -57.6200 240° Southwest 428 493 23,200 -2,340 Descending FlightAware
08:02PM -33.8340 -57.6960 240° Southwest 417 480 21,800 -2,280 Descending FlightAware
08:03PM -33.8700 -57.7740 241° Southwest 404 465 20,400 -2,280 Descending FlightAware
08:04PM -33.9080 -57.8550 241° Southwest 403 464 18,800 -2,280 Descending FlightAware
08:04PM -33.9410 -57.9250 240° Southwest 396 456 17,500 -2,220 Descending FlightAware
08:05PM -33.9800 -58.0080 240° Southwest 384 442 15,900 -2,160 Descending FlightAware
08:06PM -34.0140 -58.0820 241° Southwest 381 438 14,500 -2,220 Descending FlightAware
08:06PM -34.0520 -58.1640 241° Southwest 379 436 12,800 -2,100 Descending FlightAware
08:07PM -34.0850 -58.2360 241° Southwest 363 418 11,600 -1,020 Descending FlightAware
08:08PM -34.1180 -58.3090 241° Southwest 314 361 11,400 -660 Descending FlightAware
08:08PM -34.1460 -58.3700 241° Southwest 290 334 10,700 -1,320 Descending FlightAware
08:09PM -34.1700 -58.4210 240° Southwest 289 333 9,700 -1,680 Descending FlightAware
08:09PM -34.1770 -58.4380 244° Southwest 286 329 9,400 -1,620 Descending FlightAware
08:10PM -34.1960 -58.4800 241° Southwest 284 327 8,600 -1,740 Descending FlightAware
08:10PM -34.2040 -58.4970 240° Southwest 284 327 8,200 -1,620 Descending FlightAware
08:10PM -34.2230 -58.5380 241° Southwest 278 320 7,500 -1,500 Descending FlightAware
08:11PM -34.2290 -58.5510 241° Southwest 276 318 7,200 -1,800 Descending FlightAware
08:11PM -34.2440 -58.5830 240° Southwest 277 319 6,500 -1,560 Descending FlightAware
08:11PM -34.2520 -58.6020 243° Southwest 272 313 6,200 -840 Descending FlightAware
08:12PM -34.2710 -58.6380 237° Southwest 255 293 5,900 -660 Descending FlightAware
08:12PM -34.2820 -58.6460 211° Southwest 249 287 5,800 -840 Descending FlightAware
08:12PM -34.2950 -58.6490 191° South 245 282 5,600 -720 Descending FlightAware
08:13PM -34.3290 -58.6360 162° South 228 262 5,300 -720 Descending FlightAware
08:13PM -34.3560 -58.6240 160° South 219 252 4,900 -1,020 Descending FlightAware
08:14PM -34.3820 -58.6130 161° South 219 252 4,400 -1,080 Descending FlightAware
08:14PM -34.3940 -58.6080 161° South 218 251 4,200 -1,080 Descending FlightAware
08:14PM -34.4210 -58.5970 161° South 216 249 3,700 -1,200 Descending FlightAware
08:15PM -34.4480 -58.5850 160° South 220 253 3,100 -1,140 Descending FlightAware
08:15PM -34.4610 -58.5750 148° Southeast 220 253 2,900 -600 Descending FlightAware
08:15PM -34.4810 -58.5530 138° Southeast 195 224 2,700 -1,260 Descending FlightAware
08:16PM -34.4950 -58.5300 126° Southeast 188 216 1,800 -1,560 Descending FlightAware
08:16PM -34.5060 -58.5110 125° Southeast 174 200 1,400 -1,020 Descending FlightAware
08:16PM -34.5120 -58.5010 126° Southeast 160 184 1,200 -900 Descending FlightAware
08:17PM -34.5220 -58.4820 123° Southeast 140 161 800 -780 Descending FlightAware
08:17PM -34.5320 -58.4640 124° Southeast 135 155 500 -720 Descending FlightAware
08:18PM -34.5410 -58.4490 126° Southeast 133 153 200 -780 Descending FlightAware
08:20PM -34.5592 -58.4156 123° Southeast  Level Estimated
08:21PM -34.5592 -58.4156 147° Southeast  Level Estimated
08:22PM -34.5592 -58.4156 33° Northeast  Level Estimated
08:23PM -34.5592 -58.4156 147° Southeast  Level Estimated
08:24PM -34.5592 -58.4156 33° Northeast  Level Estimated
08:25PM -34.5592 -58.4156 147° Southeast  Level Estimated
08:26PM -34.5592 -58.4156 33° Northeast  Level Estimated
08:27PM -34.5592 -58.4156 147° Southeast  Level Estimated
08:28PM -34.5592 -58.4156 33° Northeast  Level Estimated
08:29PM -34.5592 -58.4156 147° Southeast  Level Estimated
08:30PM -34.5592 -58.4156 33° Northeast  Level Estimated
08:31PM -34.5592 -58.4156 147° Southeast  Level Estimated
08:32PM -34.5592 -58.4156 33° Northeast  Level Estimated
08:33PM -34.5592 -58.4156 147° Southeast  Level Estimated
08:34PM -34.5592 -58.4156 33° Northeast  Level Estimated
08:35PM -34.5592 -58.4156 147° Southeast  Level Estimated
08:36PM -34.5592 -58.4156 33° Northeast  Level Estimated
08:37PM -34.5592 -58.4156 147° Southeast  Level Estimated
08:38PM -34.5592 -58.4156 33° Northeast  Level Estimated
08:39PM -34.5592 -58.4156 147° Southeast  Level Estimated
08:40PM -34.5592 -58.4156 33° Northeast  Level Estimated
08:41PM -34.5592 -58.4156 147° Southeast  Level Estimated
08:42PM -34.5592 -58.4156 33° Northeast  Level Estimated
08:43PM -34.5592 -58.4156 147° Southeast  Level Estimated
08:44PM -34.5592 -58.4156 33° Northeast  Level Estimated
08:45PM -34.5592 -58.4156 147° Southeast  Level Estimated
08:46PM -34.5592 -58.4156 33° Northeast  Level Estimated